sensor_id;sensor_type;location;lat;lon;timestamp;P1;durP1;ratioP1;P2;durP2;ratioP2
51558;SDS011;61650;48.882;2.092;2022-10-16T00:01:35;1.50;;;1.37;;
51558;SDS011;61650;48.882;2.092;2022-10-16T00:04:01;1.90;;;1.70;;
51558;SDS011;61650;48.882;2.092;2022-10-16T00:06:27;1.73;;;1.60;;
51558;SDS011;61650;48.882;2.092;2022-10-16T00:08:54;1.43;;;1.33;;
51558;SDS011;61650;48.882;2.092;2022-10-16T00:11:21;1.50;;;1.27;;
51558;SDS011;61650;48.882;2.092;2022-10-16T00:13:49;1.70;;;1.60;;
51558;SDS011;61650;48.882;2.092;2022-10-16T00:16:17;2.33;;;1.40;;
51558;SDS011;61650;48.882;2.092;2022-10-16T00:18:43;2.53;;;1.33;;
51558;SDS011;61650;48.882;2.092;2022-10-16T00:21:13;1.50;;;1.40;;
51558;SDS011;61650;48.882;2.092;2022-10-16T00:23:50;1.87;;;1.37;;
51558;SDS011;61650;48.882;2.092;2022-10-16T00:26:17;4.03;;;1.50;;
51558;SDS011;61650;48.882;2.092;2022-10-16T00:28:47;2.63;;;1.30;;
51558;SDS011;61650;48.882;2.092;2022-10-16T00:31:14;2.30;;;1.23;;
51558;SDS011;61650;48.882;2.092;2022-10-16T00:33:40;3.50;;;1.63;;
51558;SDS011;61650;48.882;2.092;2022-10-16T00:36:07;2.10;;;1.40;;
51558;SDS011;61650;48.882;2.092;2022-10-16T00:38:35;1.60;;;1.20;;
51558;SDS011;61650;48.882;2.092;2022-10-16T00:41:02;2.07;;;1.10;;
51558;SDS011;61650;48.882;2.092;2022-10-16T00:43:45;1.60;;;1.30;;
51558;SDS011;61650;48.882;2.092;2022-10-16T00:46:25;2.40;;;1.40;;
51558;SDS011;61650;48.882;2.092;2022-10-16T00:51:41;2.53;;;1.33;;
51558;SDS011;61650;48.882;2.092;2022-10-16T00:54:08;1.40;;;1.20;;
51558;SDS011;61650;48.882;2.092;2022-10-16T00:56:39;5.80;;;1.33;;
51558;SDS011;61650;48.882;2.092;2022-10-16T00:59:07;3.20;;;1.23;;
51558;SDS011;61650;48.882;2.092;2022-10-16T01:01:40;1.63;;;1.10;;
51558;SDS011;61650;48.882;2.092;2022-10-16T01:04:06;1.30;;;1.00;;
51558;SDS011;61650;48.882;2.092;2022-10-16T01:06:36;1.60;;;1.50;;
51558;SDS011;61650;48.882;2.092;2022-10-16T01:09:54;2.33;;;1.10;;
51558;SDS011;61650;48.882;2.092;2022-10-16T01:12:39;1.30;;;1.03;;
51558;SDS011;61650;48.882;2.092;2022-10-16T01:15:55;2.63;;;1.10;;
51558;SDS011;61650;48.882;2.092;2022-10-16T01:23:44;1.27;;;1.00;;
51558;SDS011;61650;48.882;2.092;2022-10-16T01:26:19;1.20;;;1.03;;
51558;SDS011;61650;48.882;2.092;2022-10-16T01:28:57;2.07;;;1.30;;
51558;SDS011;61650;48.882;2.092;2022-10-16T01:31:43;1.23;;;1.07;;
51558;SDS011;61650;48.882;2.092;2022-10-16T01:34:17;5.10;;;1.20;;
51558;SDS011;61650;48.882;2.092;2022-10-16T01:36:52;4.20;;;1.20;;
51558;SDS011;61650;48.882;2.092;2022-10-16T01:39:22;1.90;;;1.13;;
51558;SDS011;61650;48.882;2.092;2022-10-16T01:44:51;2.53;;;0.93;;
51558;SDS011;61650;48.882;2.092;2022-10-16T01:47:19;10.17;;;2.27;;
51558;SDS011;61650;48.882;2.092;2022-10-16T01:49:49;2.03;;;1.20;;
51558;SDS011;61650;48.882;2.092;2022-10-16T01:52:18;1.73;;;1.33;;
51558;SDS011;61650;48.882;2.092;2022-10-16T01:54:47;2.37;;;1.20;;
51558;SDS011;61650;48.882;2.092;2022-10-16T01:57:15;1.50;;;0.80;;
51558;SDS011;61650;48.882;2.092;2022-10-16T01:59:43;1.00;;;0.90;;
51558;SDS011;61650;48.882;2.092;2022-10-16T02:02:11;2.40;;;1.10;;
51558;SDS011;61650;48.882;2.092;2022-10-16T02:04:43;2.30;;;0.97;;
51558;SDS011;61650;48.882;2.092;2022-10-16T02:07:12;1.17;;;0.93;;
51558;SDS011;61650;48.882;2.092;2022-10-16T02:09:40;2.63;;;0.90;;
51558;SDS011;61650;48.882;2.092;2022-10-16T02:12:10;1.53;;;1.07;;
51558;SDS011;61650;48.882;2.092;2022-10-16T02:14:44;1.40;;;1.00;;
51558;SDS011;61650;48.882;2.092;2022-10-16T02:17:14;1.43;;;1.33;;
51558;SDS011;61650;48.882;2.092;2022-10-16T02:19:41;1.93;;;1.10;;
51558;SDS011;61650;48.882;2.092;2022-10-16T02:22:09;3.20;;;1.00;;
51558;SDS011;61650;48.882;2.092;2022-10-16T02:25:10;1.00;;;0.80;;
51558;SDS011;61650;48.882;2.092;2022-10-16T02:30:37;2.77;;;1.03;;
51558;SDS011;61650;48.882;2.092;2022-10-16T02:33:08;2.70;;;1.00;;
51558;SDS011;61650;48.882;2.092;2022-10-16T02:35:36;1.83;;;1.10;;
51558;SDS011;61650;48.882;2.092;2022-10-16T02:38:03;1.03;;;0.70;;
51558;SDS011;61650;48.882;2.092;2022-10-16T02:40:29;6.00;;;1.17;;
51558;SDS011;61650;48.882;2.092;2022-10-16T02:42:55;1.50;;;1.00;;
51558;SDS011;61650;48.882;2.092;2022-10-16T02:45:21;1.53;;;1.00;;
51558;SDS011;61650;48.882;2.092;2022-10-16T02:47:48;2.60;;;0.80;;
51558;SDS011;61650;48.882;2.092;2022-10-16T02:50:14;4.00;;;1.40;;
51558;SDS011;61650;48.882;2.092;2022-10-16T02:52:39;2.03;;;1.10;;
51558;SDS011;61650;48.882;2.092;2022-10-16T02:55:05;1.00;;;0.90;;
51558;SDS011;61650;48.882;2.092;2022-10-16T02:57:31;3.33;;;0.90;;
51558;SDS011;61650;48.882;2.092;2022-10-16T02:59:57;1.33;;;0.83;;
51558;SDS011;61650;48.882;2.092;2022-10-16T03:02:22;2.67;;;1.03;;
51558;SDS011;61650;48.882;2.092;2022-10-16T03:04:48;1.17;;;0.90;;
51558;SDS011;61650;48.882;2.092;2022-10-16T03:07:14;2.50;;;1.10;;
51558;SDS011;61650;48.882;2.092;2022-10-16T03:09:40;2.93;;;0.80;;
51558;SDS011;61650;48.882;2.092;2022-10-16T03:12:05;1.57;;;0.90;;
51558;SDS011;61650;48.882;2.092;2022-10-16T03:14:31;1.87;;;1.03;;
51558;SDS011;61650;48.882;2.092;2022-10-16T03:16:57;2.97;;;0.80;;
51558;SDS011;61650;48.882;2.092;2022-10-16T03:19:22;1.30;;;0.90;;
51558;SDS011;61650;48.882;2.092;2022-10-16T03:21:48;2.07;;;0.93;;
51558;SDS011;61650;48.882;2.092;2022-10-16T03:24:13;1.57;;;0.80;;
51558;SDS011;61650;48.882;2.092;2022-10-16T03:26:39;1.40;;;1.10;;
51558;SDS011;61650;48.882;2.092;2022-10-16T03:29:05;2.20;;;0.97;;
51558;SDS011;61650;48.882;2.092;2022-10-16T03:31:32;2.03;;;0.97;;
51558;SDS011;61650;48.882;2.092;2022-10-16T03:33:58;1.50;;;0.87;;
51558;SDS011;61650;48.882;2.092;2022-10-16T03:36:23;1.13;;;0.83;;
51558;SDS011;61650;48.882;2.092;2022-10-16T03:38:49;1.43;;;0.80;;
51558;SDS011;61650;48.882;2.092;2022-10-16T03:41:15;2.40;;;0.90;;
51558;SDS011;61650;48.882;2.092;2022-10-16T03:43:40;3.23;;;1.10;;
51558;SDS011;61650;48.882;2.092;2022-10-16T03:46:06;3.53;;;1.10;;
51558;SDS011;61650;48.882;2.092;2022-10-16T03:48:31;2.33;;;1.07;;
51558;SDS011;61650;48.882;2.092;2022-10-16T03:50:57;2.50;;;1.00;;
51558;SDS011;61650;48.882;2.092;2022-10-16T03:53:23;1.00;;;0.80;;
51558;SDS011;61650;48.882;2.092;2022-10-16T03:55:49;1.57;;;0.80;;
51558;SDS011;61650;48.882;2.092;2022-10-16T03:58:14;1.00;;;0.90;;
51558;SDS011;61650;48.882;2.092;2022-10-16T04:00:44;1.80;;;0.83;;
51558;SDS011;61650;48.882;2.092;2022-10-16T04:03:10;1.70;;;0.83;;
51558;SDS011;61650;48.882;2.092;2022-10-16T04:05:36;1.47;;;1.00;;
51558;SDS011;61650;48.882;2.092;2022-10-16T04:08:02;1.00;;;0.70;;
51558;SDS011;61650;48.882;2.092;2022-10-16T04:10:28;3.53;;;0.90;;
51558;SDS011;61650;48.882;2.092;2022-10-16T04:12:54;0.83;;;0.73;;
51558;SDS011;61650;48.882;2.092;2022-10-16T04:15:21;2.07;;;0.90;;
51558;SDS011;61650;48.882;2.092;2022-10-16T04:17:48;1.13;;;0.80;;
51558;SDS011;61650;48.882;2.092;2022-10-16T04:20:13;2.30;;;0.87;;
51558;SDS011;61650;48.882;2.092;2022-10-16T04:22:39;1.20;;;1.00;;
51558;SDS011;61650;48.882;2.092;2022-10-16T04:25:05;1.57;;;0.77;;
51558;SDS011;61650;48.882;2.092;2022-10-16T04:27:30;3.03;;;0.90;;
51558;SDS011;61650;48.882;2.092;2022-10-16T04:29:59;1.77;;;0.80;;
51558;SDS011;61650;48.882;2.092;2022-10-16T04:32:26;1.20;;;0.90;;
51558;SDS011;61650;48.882;2.092;2022-10-16T04:34:51;2.00;;;0.90;;
51558;SDS011;61650;48.882;2.092;2022-10-16T04:37:17;3.67;;;0.90;;
51558;SDS011;61650;48.882;2.092;2022-10-16T04:39:43;3.20;;;0.93;;
51558;SDS011;61650;48.882;2.092;2022-10-16T04:42:09;3.10;;;1.10;;
51558;SDS011;61650;48.882;2.092;2022-10-16T04:44:35;0.87;;;0.70;;
51558;SDS011;61650;48.882;2.092;2022-10-16T04:47:01;2.13;;;0.77;;
51558;SDS011;61650;48.882;2.092;2022-10-16T04:49:27;3.40;;;0.80;;
51558;SDS011;61650;48.882;2.092;2022-10-16T04:51:52;1.77;;;0.80;;
51558;SDS011;61650;48.882;2.092;2022-10-16T04:54:18;1.77;;;0.80;;
51558;SDS011;61650;48.882;2.092;2022-10-16T04:56:43;1.90;;;1.00;;
51558;SDS011;61650;48.882;2.092;2022-10-16T04:59:12;1.07;;;0.80;;
51558;SDS011;61650;48.882;2.092;2022-10-16T05:01:42;1.40;;;0.80;;
51558;SDS011;61650;48.882;2.092;2022-10-16T05:04:08;0.90;;;0.80;;
51558;SDS011;61650;48.882;2.092;2022-10-16T05:06:34;2.00;;;0.80;;
51558;SDS011;61650;48.882;2.092;2022-10-16T05:09:00;1.80;;;0.80;;
51558;SDS011;61650;48.882;2.092;2022-10-16T05:11:25;6.90;;;1.00;;
51558;SDS011;61650;48.882;2.092;2022-10-16T05:13:51;1.57;;;0.90;;
51558;SDS011;61650;48.882;2.092;2022-10-16T05:16:19;1.10;;;0.80;;
51558;SDS011;61650;48.882;2.092;2022-10-16T05:18:45;1.33;;;0.77;;
51558;SDS011;61650;48.882;2.092;2022-10-16T05:21:10;2.07;;;0.80;;
51558;SDS011;61650;48.882;2.092;2022-10-16T05:23:36;1.20;;;0.90;;
51558;SDS011;61650;48.882;2.092;2022-10-16T05:26:02;1.10;;;0.83;;
51558;SDS011;61650;48.882;2.092;2022-10-16T05:28:28;1.70;;;1.00;;
51558;SDS011;61650;48.882;2.092;2022-10-16T05:30:55;1.57;;;0.80;;
51558;SDS011;61650;48.882;2.092;2022-10-16T05:33:22;2.70;;;0.90;;
51558;SDS011;61650;48.882;2.092;2022-10-16T05:35:48;0.97;;;0.70;;
51558;SDS011;61650;48.882;2.092;2022-10-16T05:38:14;5.30;;;1.00;;
51558;SDS011;61650;48.882;2.092;2022-10-16T05:40:41;1.93;;;0.83;;
51558;SDS011;61650;48.882;2.092;2022-10-16T05:43:06;1.87;;;0.90;;
51558;SDS011;61650;48.882;2.092;2022-10-16T05:45:32;1.03;;;0.80;;
51558;SDS011;61650;48.882;2.092;2022-10-16T05:47:58;1.10;;;0.70;;
51558;SDS011;61650;48.882;2.092;2022-10-16T05:50:24;1.40;;;0.80;;
51558;SDS011;61650;48.882;2.092;2022-10-16T05:52:50;1.40;;;0.90;;
51558;SDS011;61650;48.882;2.092;2022-10-16T05:55:15;1.40;;;0.90;;
51558;SDS011;61650;48.882;2.092;2022-10-16T05:57:41;1.80;;;1.10;;
51558;SDS011;61650;48.882;2.092;2022-10-16T06:00:06;4.90;;;1.23;;
51558;SDS011;61650;48.882;2.092;2022-10-16T06:02:33;1.63;;;1.00;;
51558;SDS011;61650;48.882;2.092;2022-10-16T06:04:58;2.10;;;1.00;;
51558;SDS011;61650;48.882;2.092;2022-10-16T06:07:24;2.90;;;0.90;;
51558;SDS011;61650;48.882;2.092;2022-10-16T06:09:50;1.50;;;1.10;;
51558;SDS011;61650;48.882;2.092;2022-10-16T06:12:17;1.00;;;0.80;;
51558;SDS011;61650;48.882;2.092;2022-10-16T06:14:42;1.10;;;0.80;;
51558;SDS011;61650;48.882;2.092;2022-10-16T06:17:09;2.50;;;1.00;;
51558;SDS011;61650;48.882;2.092;2022-10-16T06:19:34;2.07;;;1.00;;
51558;SDS011;61650;48.882;2.092;2022-10-16T06:22:00;2.60;;;0.80;;
51558;SDS011;61650;48.882;2.092;2022-10-16T06:24:27;1.00;;;0.90;;
51558;SDS011;61650;48.882;2.092;2022-10-16T06:26:53;2.27;;;0.93;;
51558;SDS011;61650;48.882;2.092;2022-10-16T06:29:18;2.20;;;1.00;;
51558;SDS011;61650;48.882;2.092;2022-10-16T06:31:46;3.23;;;1.93;;
51558;SDS011;61650;48.882;2.092;2022-10-16T06:34:12;2.53;;;1.10;;
51558;SDS011;61650;48.882;2.092;2022-10-16T06:36:38;1.60;;;0.90;;
51558;SDS011;61650;48.882;2.092;2022-10-16T06:39:04;1.30;;;0.90;;
51558;SDS011;61650;48.882;2.092;2022-10-16T06:41:32;2.00;;;1.10;;
51558;SDS011;61650;48.882;2.092;2022-10-16T06:43:58;2.47;;;1.07;;
51558;SDS011;61650;48.882;2.092;2022-10-16T06:46:23;4.87;;;1.03;;
51558;SDS011;61650;48.882;2.092;2022-10-16T06:48:50;2.13;;;1.20;;
51558;SDS011;61650;48.882;2.092;2022-10-16T06:51:18;2.60;;;1.23;;
51558;SDS011;61650;48.882;2.092;2022-10-16T06:53:46;2.07;;;1.13;;
51558;SDS011;61650;48.882;2.092;2022-10-16T06:56:26;2.50;;;1.20;;
51558;SDS011;61650;48.882;2.092;2022-10-16T06:58:53;1.63;;;0.97;;
51558;SDS011;61650;48.882;2.092;2022-10-16T07:01:20;2.93;;;1.33;;
51558;SDS011;61650;48.882;2.092;2022-10-16T07:03:47;2.87;;;1.00;;
51558;SDS011;61650;48.882;2.092;2022-10-16T07:06:14;2.27;;;1.03;;
51558;SDS011;61650;48.882;2.092;2022-10-16T07:08:42;1.67;;;1.00;;
51558;SDS011;61650;48.882;2.092;2022-10-16T07:11:10;3.00;;;1.10;;
51558;SDS011;61650;48.882;2.092;2022-10-16T07:13:42;1.10;;;1.00;;
51558;SDS011;61650;48.882;2.092;2022-10-16T07:16:13;2.50;;;1.13;;
51558;SDS011;61650;48.882;2.092;2022-10-16T07:18:40;2.33;;;1.37;;
51558;SDS011;61650;48.882;2.092;2022-10-16T07:21:12;4.57;;;1.30;;
51558;SDS011;61650;48.882;2.092;2022-10-16T07:23:38;1.87;;;1.03;;
51558;SDS011;61650;48.882;2.092;2022-10-16T07:26:05;4.37;;;1.30;;
51558;SDS011;61650;48.882;2.092;2022-10-16T07:28:31;1.67;;;1.10;;
51558;SDS011;61650;48.882;2.092;2022-10-16T07:31:05;1.70;;;1.10;;
51558;SDS011;61650;48.882;2.092;2022-10-16T07:33:33;15.43;;;1.80;;
51558;SDS011;61650;48.882;2.092;2022-10-16T07:35:59;1.40;;;1.10;;
51558;SDS011;61650;48.882;2.092;2022-10-16T07:38:25;1.30;;;1.07;;
51558;SDS011;61650;48.882;2.092;2022-10-16T07:40:58;2.33;;;1.30;;
51558;SDS011;61650;48.882;2.092;2022-10-16T07:43:25;1.40;;;1.20;;
51558;SDS011;61650;48.882;2.092;2022-10-16T07:45:51;2.50;;;1.20;;
51558;SDS011;61650;48.882;2.092;2022-10-16T07:48:17;1.37;;;1.10;;
51558;SDS011;61650;48.882;2.092;2022-10-16T07:50:44;3.27;;;1.50;;
51558;SDS011;61650;48.882;2.092;2022-10-16T07:53:10;1.50;;;0.90;;
51558;SDS011;61650;48.882;2.092;2022-10-16T07:55:36;1.20;;;1.10;;
51558;SDS011;61650;48.882;2.092;2022-10-16T07:58:02;2.63;;;1.53;;
51558;SDS011;61650;48.882;2.092;2022-10-16T08:00:29;1.30;;;0.90;;
51558;SDS011;61650;48.882;2.092;2022-10-16T08:02:56;1.07;;;0.97;;
51558;SDS011;61650;48.882;2.092;2022-10-16T08:05:24;1.10;;;1.00;;
51558;SDS011;61650;48.882;2.092;2022-10-16T08:07:51;2.43;;;1.20;;
51558;SDS011;61650;48.882;2.092;2022-10-16T08:10:17;1.33;;;1.10;;
51558;SDS011;61650;48.882;2.092;2022-10-16T08:12:44;1.20;;;0.90;;
51558;SDS011;61650;48.882;2.092;2022-10-16T08:15:09;2.90;;;1.40;;
51558;SDS011;61650;48.882;2.092;2022-10-16T08:17:35;1.33;;;0.90;;
51558;SDS011;61650;48.882;2.092;2022-10-16T08:20:01;1.50;;;1.10;;
51558;SDS011;61650;48.882;2.092;2022-10-16T08:22:27;2.00;;;1.37;;
51558;SDS011;61650;48.882;2.092;2022-10-16T08:24:53;1.97;;;1.50;;
51558;SDS011;61650;48.882;2.092;2022-10-16T08:27:18;1.80;;;1.50;;
51558;SDS011;61650;48.882;2.092;2022-10-16T08:29:44;1.03;;;0.93;;
51558;SDS011;61650;48.882;2.092;2022-10-16T08:32:10;3.17;;;1.30;;
51558;SDS011;61650;48.882;2.092;2022-10-16T08:34:35;1.40;;;1.20;;
51558;SDS011;61650;48.882;2.092;2022-10-16T08:37:01;1.93;;;1.10;;
51558;SDS011;61650;48.882;2.092;2022-10-16T08:39:27;1.70;;;1.17;;
51558;SDS011;61650;48.882;2.092;2022-10-16T08:41:59;5.07;;;1.37;;
51558;SDS011;61650;48.882;2.092;2022-10-16T08:47:13;1.97;;;1.10;;
51558;SDS011;61650;48.882;2.092;2022-10-16T08:49:42;1.57;;;1.10;;
51558;SDS011;61650;48.882;2.092;2022-10-16T08:52:15;2.20;;;1.10;;
51558;SDS011;61650;48.882;2.092;2022-10-16T08:54:45;1.13;;;1.00;;
51558;SDS011;61650;48.882;2.092;2022-10-16T08:57:16;3.53;;;1.20;;
51558;SDS011;61650;48.882;2.092;2022-10-16T08:59:44;1.83;;;1.00;;
51558;SDS011;61650;48.882;2.092;2022-10-16T09:02:26;1.40;;;1.10;;
51558;SDS011;61650;48.882;2.092;2022-10-16T09:07:46;3.10;;;1.20;;
51558;SDS011;61650;48.882;2.092;2022-10-16T09:13:35;1.23;;;0.80;;
51558;SDS011;61650;48.882;2.092;2022-10-16T09:18:45;1.10;;;0.90;;
51558;SDS011;61650;48.882;2.092;2022-10-16T09:23:48;1.97;;;0.97;;
51558;SDS011;61650;48.882;2.092;2022-10-16T09:26:15;2.67;;;1.10;;
51558;SDS011;61650;48.882;2.092;2022-10-16T09:28:43;1.20;;;1.00;;
51558;SDS011;61650;48.882;2.092;2022-10-16T09:31:18;2.80;;;1.30;;
51558;SDS011;61650;48.882;2.092;2022-10-16T09:33:47;2.93;;;0.93;;
51558;SDS011;61650;48.882;2.092;2022-10-16T09:36:25;1.67;;;0.83;;
51558;SDS011;61650;48.882;2.092;2022-10-16T09:39:06;1.33;;;1.00;;
51558;SDS011;61650;48.882;2.092;2022-10-16T09:41:34;3.00;;;1.07;;
51558;SDS011;61650;48.882;2.092;2022-10-16T09:44:04;1.23;;;0.90;;
51558;SDS011;61650;48.882;2.092;2022-10-16T09:46:41;2.47;;;1.10;;
51558;SDS011;61650;48.882;2.092;2022-10-16T09:49:23;2.47;;;1.33;;
51558;SDS011;61650;48.882;2.092;2022-10-16T09:51:51;1.93;;;1.10;;
51558;SDS011;61650;48.882;2.092;2022-10-16T09:54:30;3.30;;;0.90;;
51558;SDS011;61650;48.882;2.092;2022-10-16T09:57:10;1.20;;;1.10;;
51558;SDS011;61650;48.882;2.092;2022-10-16T09:59:45;2.53;;;1.00;;
51558;SDS011;61650;48.882;2.092;2022-10-16T10:02:13;1.00;;;0.80;;
51558;SDS011;61650;48.882;2.092;2022-10-16T10:04:41;2.77;;;1.23;;
51558;SDS011;61650;48.882;2.092;2022-10-16T10:07:20;1.73;;;1.23;;
51558;SDS011;61650;48.882;2.092;2022-10-16T10:09:53;2.00;;;1.10;;
51558;SDS011;61650;48.882;2.092;2022-10-16T10:12:25;1.17;;;0.80;;
51558;SDS011;61650;48.882;2.092;2022-10-16T10:14:56;1.50;;;0.90;;
51558;SDS011;61650;48.882;2.092;2022-10-16T10:17:28;1.20;;;1.00;;
51558;SDS011;61650;48.882;2.092;2022-10-16T10:19:59;3.53;;;3.23;;
51558;SDS011;61650;48.882;2.092;2022-10-16T10:52:32;1.60;;;1.30;;
51558;SDS011;61650;48.882;2.092;2022-10-16T10:55:25;3.83;;;1.20;;
51558;SDS011;61650;48.882;2.092;2022-10-16T10:58:22;2.70;;;1.53;;
51558;SDS011;61650;48.882;2.092;2022-10-16T11:03:42;2.03;;;1.77;;
51558;SDS011;61650;48.882;2.092;2022-10-16T11:09:22;2.60;;;1.70;;
51558;SDS011;61650;48.882;2.092;2022-10-16T11:12:04;1.50;;;1.30;;
51558;SDS011;61650;48.882;2.092;2022-10-16T11:14:43;1.60;;;1.10;;
51558;SDS011;61650;48.882;2.092;2022-10-16T11:17:18;1.60;;;1.20;;
51558;SDS011;61650;48.882;2.092;2022-10-16T11:23:08;1.70;;;1.40;;
51558;SDS011;61650;48.882;2.092;2022-10-16T11:25:39;2.33;;;1.03;;
51558;SDS011;61650;48.882;2.092;2022-10-16T11:30:39;2.27;;;1.00;;
51558;SDS011;61650;48.882;2.092;2022-10-16T11:35:51;1.30;;;1.00;;
51558;SDS011;61650;48.882;2.092;2022-10-16T11:41:14;2.00;;;1.20;;
51558;SDS011;61650;48.882;2.092;2022-10-16T11:43:48;1.27;;;1.17;;
51558;SDS011;61650;48.882;2.092;2022-10-16T11:46:33;1.70;;;1.30;;
51558;SDS011;61650;48.882;2.092;2022-10-16T11:49:03;1.77;;;1.30;;
51558;SDS011;61650;48.882;2.092;2022-10-16T11:51:36;2.23;;;1.07;;
51558;SDS011;61650;48.882;2.092;2022-10-16T11:54:08;1.50;;;1.10;;
51558;SDS011;61650;48.882;2.092;2022-10-16T11:56:48;1.03;;;0.93;;
51558;SDS011;61650;48.882;2.092;2022-10-16T11:59:19;2.10;;;1.17;;
51558;SDS011;61650;48.882;2.092;2022-10-16T12:05:14;1.30;;;0.90;;
51558;SDS011;61650;48.882;2.092;2022-10-16T12:08:12;1.10;;;0.90;;
51558;SDS011;61650;48.882;2.092;2022-10-16T12:10:41;0.90;;;0.80;;
51558;SDS011;61650;48.882;2.092;2022-10-16T12:16:04;1.33;;;1.00;;
51558;SDS011;61650;48.882;2.092;2022-10-16T12:18:29;1.50;;;1.40;;
51558;SDS011;61650;48.882;2.092;2022-10-16T12:20:56;1.20;;;1.00;;
51558;SDS011;61650;48.882;2.092;2022-10-16T12:23:30;1.00;;;0.80;;
51558;SDS011;61650;48.882;2.092;2022-10-16T12:25:57;1.47;;;0.80;;
51558;SDS011;61650;48.882;2.092;2022-10-16T12:28:27;1.00;;;0.90;;
51558;SDS011;61650;48.882;2.092;2022-10-16T12:30:58;1.00;;;0.80;;
51558;SDS011;61650;48.882;2.092;2022-10-16T12:36:30;1.10;;;1.00;;
51558;SDS011;61650;48.882;2.092;2022-10-16T12:38:58;1.40;;;0.90;;
51558;SDS011;61650;48.882;2.092;2022-10-16T12:43:54;1.10;;;1.00;;
51558;SDS011;61650;48.882;2.092;2022-10-16T12:46:26;1.37;;;1.27;;
51558;SDS011;61650;48.882;2.092;2022-10-16T12:49:47;1.20;;;1.10;;
51558;SDS011;61650;48.882;2.092;2022-10-16T12:51:53;1.10;;;1.00;;
51558;SDS011;61650;48.882;2.092;2022-10-16T12:54:21;1.40;;;1.00;;
51558;SDS011;61650;48.882;2.092;2022-10-16T13:05:32;2.10;;;0.90;;
51558;SDS011;61650;48.882;2.092;2022-10-16T13:19:00;1.77;;;1.30;;
51558;SDS011;61650;48.882;2.092;2022-10-16T13:29:53;1.60;;;1.50;;
51558;SDS011;61650;48.882;2.092;2022-10-16T13:32:33;1.30;;;1.20;;
51558;SDS011;61650;48.882;2.092;2022-10-16T13:34:58;1.50;;;1.40;;
51558;SDS011;61650;48.882;2.092;2022-10-16T13:37:25;1.50;;;1.40;;
51558;SDS011;61650;48.882;2.092;2022-10-16T13:40:01;1.90;;;1.43;;
51558;SDS011;61650;48.882;2.092;2022-10-16T13:42:37;1.80;;;1.30;;
51558;SDS011;61650;48.882;2.092;2022-10-16T13:45:02;1.43;;;1.30;;
51558;SDS011;61650;48.882;2.092;2022-10-16T13:47:28;1.60;;;1.40;;
51558;SDS011;61650;48.882;2.092;2022-10-16T13:50:05;1.40;;;1.20;;
51558;SDS011;61650;48.882;2.092;2022-10-16T13:52:36;1.40;;;1.20;;
51558;SDS011;61650;48.882;2.092;2022-10-16T13:55:03;1.70;;;1.60;;
51558;SDS011;61650;48.882;2.092;2022-10-16T13:57:38;1.70;;;1.60;;
51558;SDS011;61650;48.882;2.092;2022-10-16T14:00:26;2.43;;;1.33;;
51558;SDS011;61650;48.882;2.092;2022-10-16T14:03:01;1.43;;;1.33;;
51558;SDS011;61650;48.882;2.092;2022-10-16T14:05:30;1.57;;;1.40;;
51558;SDS011;61650;48.882;2.092;2022-10-16T14:07:59;1.50;;;1.40;;
51558;SDS011;61650;48.882;2.092;2022-10-16T14:10:26;2.30;;;1.70;;
51558;SDS011;61650;48.882;2.092;2022-10-16T14:13:04;1.67;;;1.57;;
51558;SDS011;61650;48.882;2.092;2022-10-16T14:15:33;1.60;;;1.50;;
51558;SDS011;61650;48.882;2.092;2022-10-16T14:18:00;2.10;;;1.90;;
51558;SDS011;61650;48.882;2.092;2022-10-16T14:20:30;2.33;;;2.07;;
51558;SDS011;61650;48.882;2.092;2022-10-16T14:23:04;2.00;;;1.90;;
51558;SDS011;61650;48.882;2.092;2022-10-16T14:25:49;2.47;;;2.27;;
51558;SDS011;61650;48.882;2.092;2022-10-16T14:28:21;2.90;;;2.00;;
51558;SDS011;61650;48.882;2.092;2022-10-16T14:30:49;2.80;;;2.50;;
51558;SDS011;61650;48.882;2.092;2022-10-16T14:38:29;2.23;;;2.03;;
51558;SDS011;61650;48.882;2.092;2022-10-16T14:40:56;2.20;;;1.97;;
51558;SDS011;61650;48.882;2.092;2022-10-16T14:43:31;2.33;;;2.10;;
51558;SDS011;61650;48.882;2.092;2022-10-16T14:46:44;2.07;;;1.80;;
51558;SDS011;61650;48.882;2.092;2022-10-16T14:49:01;2.40;;;2.20;;
51558;SDS011;61650;48.882;2.092;2022-10-16T14:51:48;2.17;;;1.97;;
51558;SDS011;61650;48.882;2.092;2022-10-16T14:54:15;4.13;;;2.10;;
51558;SDS011;61650;48.882;2.092;2022-10-16T15:01:57;2.07;;;1.87;;
51558;SDS011;61650;48.882;2.092;2022-10-16T15:04:23;2.30;;;2.10;;
51558;SDS011;61650;48.882;2.092;2022-10-16T15:06:48;2.53;;;2.30;;
51558;SDS011;61650;48.882;2.092;2022-10-16T15:09:14;2.30;;;2.10;;
51558;SDS011;61650;48.882;2.092;2022-10-16T15:11:40;3.43;;;2.50;;
51558;SDS011;61650;48.882;2.092;2022-10-16T15:14:08;2.40;;;2.00;;
51558;SDS011;61650;48.882;2.092;2022-10-16T15:16:38;2.30;;;2.10;;
51558;SDS011;61650;48.882;2.092;2022-10-16T15:19:04;2.50;;;2.03;;
51558;SDS011;61650;48.882;2.092;2022-10-16T15:21:31;2.53;;;2.20;;
51558;SDS011;61650;48.882;2.092;2022-10-16T15:23:57;2.30;;;2.10;;
51558;SDS011;61650;48.882;2.092;2022-10-16T15:26:28;2.77;;;2.53;;
51558;SDS011;61650;48.882;2.092;2022-10-16T15:28:54;2.97;;;2.40;;
51558;SDS011;61650;48.882;2.092;2022-10-16T15:31:20;2.40;;;2.20;;
51558;SDS011;61650;48.882;2.092;2022-10-16T15:33:49;2.80;;;2.20;;
51558;SDS011;61650;48.882;2.092;2022-10-16T15:36:33;2.60;;;2.40;;
51558;SDS011;61650;48.882;2.092;2022-10-16T15:39:02;2.63;;;2.43;;
51558;SDS011;61650;48.882;2.092;2022-10-16T15:41:28;2.40;;;2.20;;
51558;SDS011;61650;48.882;2.092;2022-10-16T15:43:54;3.90;;;2.73;;
51558;SDS011;61650;48.882;2.092;2022-10-16T15:46:20;2.47;;;2.27;;
51558;SDS011;61650;48.882;2.092;2022-10-16T15:48:48;2.90;;;2.57;;
51558;SDS011;61650;48.882;2.092;2022-10-16T15:51:14;2.50;;;2.30;;
51558;SDS011;61650;48.882;2.092;2022-10-16T15:53:40;2.40;;;2.20;;
51558;SDS011;61650;48.882;2.092;2022-10-16T15:56:06;4.43;;;2.47;;
51558;SDS011;61650;48.882;2.092;2022-10-16T15:58:33;3.10;;;2.80;;
51558;SDS011;61650;48.882;2.092;2022-10-16T16:00:59;3.40;;;2.90;;
51558;SDS011;61650;48.882;2.092;2022-10-16T16:03:26;3.20;;;2.87;;
51558;SDS011;61650;48.882;2.092;2022-10-16T16:05:53;5.10;;;2.70;;
51558;SDS011;61650;48.882;2.092;2022-10-16T16:08:19;3.07;;;2.87;;
51558;SDS011;61650;48.882;2.092;2022-10-16T16:10:45;3.10;;;2.80;;
51558;SDS011;61650;48.882;2.092;2022-10-16T16:13:21;3.43;;;3.13;;
51558;SDS011;61650;48.882;2.092;2022-10-16T16:15:47;8.37;;;3.20;;
51558;SDS011;61650;48.882;2.092;2022-10-16T16:18:13;3.50;;;3.17;;
51558;SDS011;61650;48.882;2.092;2022-10-16T16:20:38;3.67;;;3.00;;
51558;SDS011;61650;48.882;2.092;2022-10-16T16:23:04;3.93;;;3.13;;
51558;SDS011;61650;48.882;2.092;2022-10-16T16:25:29;3.27;;;2.97;;
51558;SDS011;61650;48.882;2.092;2022-10-16T16:27:55;3.40;;;2.90;;
51558;SDS011;61650;48.882;2.092;2022-10-16T16:30:21;3.33;;;3.03;;
51558;SDS011;61650;48.882;2.092;2022-10-16T16:32:46;4.10;;;3.30;;
51558;SDS011;61650;48.882;2.092;2022-10-16T16:35:12;5.10;;;3.53;;
51558;SDS011;61650;48.882;2.092;2022-10-16T16:37:38;3.73;;;3.30;;
51558;SDS011;61650;48.882;2.092;2022-10-16T16:40:03;3.73;;;3.43;;
51558;SDS011;61650;48.882;2.092;2022-10-16T16:42:29;3.77;;;3.27;;
51558;SDS011;61650;48.882;2.092;2022-10-16T16:44:55;3.60;;;3.30;;
51558;SDS011;61650;48.882;2.092;2022-10-16T16:47:20;5.87;;;3.73;;
51558;SDS011;61650;48.882;2.092;2022-10-16T16:49:46;5.30;;;3.60;;
51558;SDS011;61650;48.882;2.092;2022-10-16T16:52:12;4.90;;;4.40;;
51558;SDS011;61650;48.882;2.092;2022-10-16T16:54:38;5.13;;;4.23;;
51558;SDS011;61650;48.882;2.092;2022-10-16T16:57:04;6.40;;;4.33;;
51558;SDS011;61650;48.882;2.092;2022-10-16T16:59:30;5.10;;;4.60;;
51558;SDS011;61650;48.882;2.092;2022-10-16T17:01:57;6.10;;;5.50;;
51558;SDS011;61650;48.882;2.092;2022-10-16T17:04:27;6.47;;;5.87;;
51558;SDS011;61650;48.882;2.092;2022-10-16T17:06:53;8.20;;;5.50;;